Edmonton / Villeneuve (Rose Field)

CRF3 · 艾伯塔, 加拿大

罗盘
风向 的 风向 140° Edmonton / Villeneuve (Rose Field) 16/34
风: 7 kt, 3 beaufort

5 kt

4 kt
改变
0 ft 5.000 10.000 15.000 20.000
Cloud Cloud
FEW 11.000
Cloud Cloud Cloud Cloud
SCT 13.000
METAR CZVL 280800Z AUTO 14007KT 9SM FEW110 SCT130 M22/M25 A2977 RMK SLP151

METAR Edmonton / Villeneuve (Rose Field) - CRF3

Edmonton / Villeneuve (Rose Field)是,加拿大中的小机场。 该机场位于纬度53,64571和经度-113,80437。 该机场有2条跑道: 16/34 和 7/25. 该机场的伪ICAO代码为CRF3。 机场在Edmonton FIR中。

该航空气象观测是针对Edmonton / Villeneuve Airport在2024年2月28日 01:00, 当地时间进行的。

机场观察

风向为140°,速度为7 kt。

可见度为9 mi。

有几云在11.000 ft的高度 和 疏云,零星散落的云朵在13.000 ft的高度。 没有观察到天花板。

温度为-22 °C,阵风为-34 °C。 露点为-25 °C,相对湿度为77%。 海平面上的气压为29,77 inHg (QNH)。

白天

今天,太阳从07:25升起,在18:10降落。 这适用于Edmonton / Villeneuve (Rose Field),世界夏令时可能有所不同。 当地时间与世界标准时间之间的时差为-7 小时。 当前,没有夏令时有效。

公司介绍

我们没有关于这个机场的公司信息。

体会

到Vliegles.nl去找飞行课程,跳伞和其他飞行体验。 浏览页面,了解Edmonton / Villeneuve (Rose Field)附近所有可用的活动。 你也可以使用搜索功能来寻找你所在地附近的特定飞行课程、跳伞或其他飞行体验。

跑道

Id 标题 侧风 逆风 侧风 %
16/34 180°-360° 4 kt 5 kt 64 %
7/25 089°-269° 5 kt 4 kt 78 %

逆风成分最大的方向会被突出显示,并用于横风计算。 这并不一定意味着这个方向在使用。

乌云

11.000 ft FEW 几云
13.000 ft SCT 疏云,零星散落的云朵

温度 & 天气

温度 -22 °C
露点 -25 °C
相对湿度 77%
风寒 -34 °C
Kp-index 1 (0-9)

评论

SLP151海平面压力为29,98 inHg (29,98 inHg)

白天

日出
07:25 (5:49)
中午
12:47
日落
18:10

小工具

你想在你的网站上有一个关于Edmonton / Villeneuve (Rose Field)的当前航空天气(METAR)的小部件吗?

显示HTML代码
?>